Time;durP1;ratioP1;P1;durP2;ratioP2;P2;SDS_P1;SDS_P2;PMS_P1;PMS_P2;Temp;Humidity;BMP_temperature;BMP_pressure;BME280_temperature;BME280_humidity;BME280_pressure;Samples;Min_cycle;Max_cycle;Signal;HPM_P1;HPM_P2
2021/05/11 03:31:56;;;;;;;22.27;14.90;;;;;;;18.11;59.97;97926.81;7720154;23;20614;-77
2021/05/11 03:35:17;;;;;;;18.30;13.10;;;;;;;17.96;60.32;97936.91;6943951;28;20247;-78
2021/05/11 03:38:39;;;;;;;18.10;13.93;;;;;;;18.35;59.39;97938.00;6951907;28;20236;-77
2021/05/11 03:42:05;;;;;;;18.30;13.97;;;;;;;18.12;59.30;97924.91;6951986;28;20250;-78
2021/05/11 03:45:33;;;;;;;19.37;14.03;;;;;;;18.16;59.46;97934.19;6951992;28;20298;-78
2021/05/11 03:48:55;;;;;;;20.90;14.30;;;;;;;17.91;60.29;97931.44;6935624;28;20248;-78
2021/05/11 03:52:18;;;;;;;17.43;13.20;;;;;;;18.15;59.40;97935.25;6926376;28;20695;-78
2021/05/11 03:55:40;;;;;;;21.53;13.80;;;;;;;18.23;59.35;97916.41;6902566;28;20207;-78
2021/05/11 03:59:04;;;;;;;19.77;14.00;;;;;;;18.22;59.19;97912.06;6950860;28;20207;-78
2021/05/11 04:02:25;;;;;;;19.87;14.57;;;;;;;18.29;58.94;97911.78;6941137;28;20227;-77
2021/05/11 04:05:49;;;;;;;21.17;15.03;;;;;;;18.16;59.30;97899.53;6944879;28;20201;-78
2021/05/11 04:09:14;;;;;;;19.97;14.27;;;;;;;17.80;59.88;97897.91;6926337;28;20218;-78
2021/05/11 04:12:58;;;;;;;18.93;13.53;;;;;;;17.97;59.58;97916.72;6922284;28;20228;-77
2021/05/11 04:16:22;;;;;;;20.30;13.97;;;;;;;17.96;59.77;97926.00;6946516;28;20256;-78
2021/05/11 04:19:43;;;;;;;18.23;13.70;;;;;;;18.11;59.25;97876.91;6924590;28;20200;-78
2021/05/11 04:23:05;;;;;;;19.60;14.33;;;;;;;17.97;59.88;97900.34;6949411;28;20223;-78
2021/05/11 04:26:26;;;;;;;21.17;14.93;;;;;;;18.00;59.55;97884.28;6917255;28;20208;-77
2021/05/11 04:29:50;;;;;;;21.33;14.77;;;;;;;18.45;58.45;97886.13;6917545;28;20652;-78
2021/05/11 04:33:11;;;;;;;19.73;15.27;;;;;;;18.57;57.92;97897.56;6921476;28;20228;-78
2021/05/11 04:36:33;;;;;;;18.10;14.07;;;;;;;18.36;58.67;97894.06;6921746;28;20210;-78
2021/05/11 04:39:55;;;;;;;20.63;15.27;;;;;;;18.46;58.14;97895.94;6944083;28;20231;-78
2021/05/11 04:43:16;;;;;;;22.53;15.47;;;;;;;18.30;58.55;97897.88;6920166;28;20216;-78
2021/05/11 04:46:45;;;;;;;20.40;14.97;;;;;;;18.37;58.61;97895.69;6920437;28;20212;-78
2021/05/11 04:50:06;;;;;;;19.67;14.47;;;;;;;18.57;58.22;97897.56;6920362;28;20202;-78
2021/05/11 04:53:27;;;;;;;19.53;15.00;;;;;;;18.43;58.05;97889.13;6920556;28;20235;-78
2021/05/11 04:56:50;;;;;;;21.97;16.27;;;;;;;18.09;59.32;97895.44;6915737;28;20207;-78
2021/05/11 05:00:13;;;;;;;22.27;16.50;;;;;;;18.25;59.37;97894.31;6929164;28;20264;-77
2021/05/11 05:03:40;;;;;;;21.63;16.47;;;;;;;18.24;59.30;97909.06;6943445;28;20289;-78
2021/05/11 05:07:01;;;;;;;22.37;16.07;;;;;;;18.59;58.55;97917.19;6924033;28;20230;-77
2021/05/11 05:10:22;;;;;;;19.53;14.47;;;;;;;18.49;58.56;97919.94;6920375;28;20246;-78
2021/05/11 05:13:44;;;;;;;19.93;14.80;;;;;;;18.59;58.30;97922.66;6921197;28;20265;-78
2021/05/11 05:17:05;;;;;;;22.53;16.80;;;;;;;18.10;59.75;97916.19;6920825;28;20231;-78
2021/05/11 05:20:26;;;;;;;24.20;16.33;;;;;;;17.62;61.45;97898.44;6938931;28;20233;-77
2021/05/11 05:23:50;;;;;;;25.83;17.53;;;;;;;18.29;59.52;97909.84;6947837;28;20216;-78
2021/05/11 05:27:17;;;;;;;27.43;17.37;;;;;;;18.28;59.90;97899.25;6947276;28;20213;-77
2021/05/11 05:30:39;;;;;;;24.77;17.73;;;;;;;18.43;59.37;97882.84;6947480;28;20345;-77
2021/05/11 05:34:00;;;;;;;23.43;16.90;;;;;;;18.40;58.77;97894.34;6946956;28;20281;-77
2021/05/11 05:37:21;;;;;;;25.10;16.27;;;;;;;18.48;59.25;97921.06;6947567;28;20209;-78
2021/05/11 05:40:43;;;;;;;24.07;16.80;;;;;;;18.56;58.56;97913.13;6946772;28;20222;-77
2021/05/11 05:44:04;;;;;;;22.57;16.60;;;;;;;18.47;59.31;97908.50;6947124;28;20203;-77
2021/05/11 05:47:26;;;;;;;22.40;15.43;;;;;;;18.05;60.35;97894.38;6931395;28;20211;-79
2021/05/11 05:50:52;;;;;;;23.83;15.67;;;;;;;18.53;58.94;97901.94;6919969;28;20234;-77
2021/05/11 05:54:13;;;;;;;19.90;15.13;;;;;;;18.31;59.65;97915.03;6920739;28;20222;-78
2021/05/11 05:57:34;;;;;;;19.43;14.73;;;;;;;17.97;60.25;97917.53;6920883;28;20211;-78
2021/05/11 06:00:58;;;;;;;19.43;14.13;;;;;;;18.36;58.62;97899.53;6940573;28;20230;-78
2021/05/11 06:04:21;;;;;;;17.27;14.07;;;;;;;18.63;58.10;97921.03;6947141;28;20573;-78
2021/05/11 06:07:43;;;;;;;17.53;14.07;;;;;;;18.40;58.08;97897.06;6947932;28;20214;-78
2021/05/11 06:11:08;;;;;;;17.20;13.97;;;;;;;18.35;58.37;97927.09;6947544;28;20261;-76
2021/05/11 06:14:43;;;;;;;18.07;12.80;;;;;;;18.61;58.00;97909.53;6947743;28;20188;-78
2021/05/11 06:18:04;;;;;;;17.17;13.50;;;;;;;18.00;59.23;97914.28;6948018;28;20735;-78
2021/05/11 06:21:26;;;;;;;15.90;12.57;;;;;;;17.89;60.22;97904.47;6946969;28;20691;-78
2021/05/11 06:24:47;;;;;;;17.17;13.13;;;;;;;18.18;59.40;97904.72;6947301;28;20409;-78
2021/05/11 06:28:08;;;;;;;19.13;14.13;;;;;;;18.22;59.39;97906.59;6947322;28;20752;-78
2021/05/11 06:31:32;;;;;;;18.33;14.03;;;;;;;18.22;58.57;97879.31;6946303;28;20231;-78
2021/05/11 06:34:57;;;;;;;17.50;12.70;;;;;;;18.54;58.24;97898.94;6908801;28;20213;-77
2021/05/11 06:38:19;;;;;;;19.40;14.70;;;;;;;18.90;57.41;97894.16;6917758;28;20223;-78
2021/05/11 06:41:43;;;;;;;17.73;13.73;;;;;;;18.46;58.06;97893.22;6899070;28;20733;-78
2021/05/11 06:45:13;;;;;;;18.23;13.50;;;;;;;18.68;58.08;97882.75;6915543;28;20235;-78
2021/05/11 06:48:34;;;;;;;17.07;13.33;;;;;;;18.73;57.24;97872.66;6921866;28;20199;-79
2021/05/11 06:55:37;;;;;;;17.07;13.73;;;;;;;18.73;57.39;97908.16;6904947;28;20199;-78
2021/05/11 06:58:59;;;;;;;17.70;13.30;;;;;;;18.93;56.89;97901.78;6910733;28;20673;-78
2021/05/11 07:02:20;;;;;;;16.37;12.47;;;;;;;19.07;56.39;97892.72;6901773;28;20321;-78
2021/05/11 07:05:43;;;;;;;15.73;12.73;;;;;;;18.77;56.82;97881.09;6908279;28;20577;-77
2021/05/11 07:09:08;;;;;;;15.63;13.00;;;;;;;18.88;57.09;97875.28;6906902;28;20226;-78
2021/05/11 07:16:10;;;;;;;15.17;11.10;;;;;;;18.32;58.30;97840.31;6903415;28;20211;-78
2021/05/11 07:19:31;;;;;;;13.63;10.83;;;;;;;18.84;57.33;97890.63;6907928;28;20220;-77
2021/05/11 07:22:52;;;;;;;11.10;9.90;;;;;;;18.72;56.77;97849.16;6923761;28;20274;-84
2021/05/11 07:26:24;;;;;;;12.63;10.67;;;;;;;18.83;57.28;97871.78;6907001;28;20196;-78
2021/05/11 07:29:51;;;;;;;13.03;11.17;;;;;;;18.82;57.21;97860.03;6897167;28;20268;-77
2021/05/11 07:33:17;;;;;;;12.03;10.13;;;;;;;18.85;57.54;97858.66;6898940;28;20343;-81
2021/05/11 07:36:38;;;;;;;14.67;10.00;;;;;;;18.77;57.36;97838.22;6899644;28;20243;-80
2021/05/11 07:39:59;;;;;;;10.43;9.20;;;;;;;19.30;55.27;97817.44;6898969;28;20262;-77
2021/05/11 07:43:24;;;;;;;11.17;9.23;;;;;;;19.49;53.92;97772.72;6897914;28;20241;-78
2021/05/11 07:46:53;;;;;;;11.07;9.30;;;;;;;19.27;54.82;97818.03;6908814;28;20294;-78
2021/05/11 07:50:36;;;;;;;14.53;10.17;;;;;;;19.75;54.00;97820.63;6911738;28;20204;-78
2021/05/11 08:05:02;;;;;;;8.57;7.53;;;;;;;19.98;53.06;97844.47;6963936;28;20196;-78
2021/05/11 08:15:57;;;;;;;10.00;8.60;;;;;;;20.49;51.59;97845.63;6937708;28;20220;-78
2021/05/11 08:19:39;;;;;;;9.90;8.37;;;;;;;20.09;51.97;97834.28;6938520;28;20201;-79
2021/05/11 08:30:20;;;;;;;12.57;9.97;;;;;;;19.87;52.37;97844.88;6895180;28;20192;-81
2021/05/11 08:33:41;;;;;;;13.27;8.90;;;;;;;19.70;53.39;97820.66;6897012;28;20942;-79
2021/05/11 08:37:04;;;;;;;11.73;9.80;;;;;;;19.61;54.49;97795.03;6925419;28;20289;-78
2021/05/11 08:40:27;;;;;;;9.97;8.63;;;;;;;19.81;53.92;97810.47;6922815;28;20573;-79
2021/05/11 08:43:48;;;;;;;9.83;8.40;;;;;;;19.69;54.07;97812.75;6939925;28;20206;-78
2021/05/11 08:47:11;;;;;;;8.63;7.73;;;;;;;19.50;53.49;97790.75;6948766;28;20265;-79
2021/05/11 08:50:35;;;;;;;8.53;7.63;;;;;;;19.91;52.98;97805.69;6948676;28;20200;-79
2021/05/11 09:05:14;;;;;;;8.27;7.37;;;;;;;19.56;53.10;97813.38;6921510;28;20208;-79
2021/05/11 09:23:53;;;;;;;7.13;6.37;;;;;;;20.73;50.18;97829.97;6919620;28;20180;-79
2021/05/11 09:27:22;;;;;;;6.77;6.07;;;;;;;21.13;49.40;97836.88;6925540;28;20557;-79
2021/05/11 09:30:56;;;;;;;6.60;6.00;;;;;;;20.76;49.67;97784.75;6957009;23;22151;-76
2021/05/11 09:34:28;;;;;;;6.27;5.07;;;;;;;20.99;48.84;97789.38;6903622;28;20228;-75
2021/05/11 09:45:37;;;;;;;6.50;5.73;;;;;;;20.31;49.97;97764.25;6917640;28;20207;-75
2021/05/11 09:56:39;;;;;;;6.43;5.83;;;;;;;20.51;48.75;97747.53;6916689;28;20217;-75
2021/05/11 10:00:58;;;;;;;6.67;6.07;;;;;;;20.57;50.32;97806.63;6916747;28;20282;-75
2021/05/11 10:39:37;;;;;;;5.20;4.67;;;;;;;21.64;47.52;97723.31;6917874;28;20693;-77
2021/05/11 10:46:50;;;;;;;5.67;5.07;;;;;;;21.85;47.73;97807.75;6949153;28;20193;-77
2021/05/11 10:50:41;;;;;;;7.00;5.53;;;;;;;21.49;47.70;97748.28;6930204;28;20587;-77
2021/05/11 10:54:04;;;;;;;5.50;5.00;;;;;;;21.82;47.59;97785.56;6933801;28;20214;-77
2021/05/11 10:57:34;;;;;;;5.13;4.70;;;;;;;21.63;47.22;97790.28;6946283;28;20280;-77
2021/05/11 11:00:58;;;;;;;7.20;5.47;;;;;;;20.71;47.68;97681.53;6930660;28;20671;-77
2021/05/11 11:04:21;;;;;;;6.87;4.97;;;;;;;21.46;47.18;97749.69;6945678;28;20207;-76
2021/05/11 11:07:43;;;;;;;5.90;5.10;;;;;;;21.68;48.18;97834.13;6947405;28;20213;-77
2021/05/11 11:11:09;;;;;;;6.17;5.57;;;;;;;20.99;48.71;97762.78;6947537;28;20687;-77
2021/05/11 11:14:40;;;;;;;5.70;5.17;;;;;;;20.73;48.84;97730.53;6947533;28;20211;-77
2021/05/11 11:18:02;;;;;;;7.17;5.50;;;;;;;20.76;49.01;97729.97;6947495;28;20210;-78
2021/05/11 11:21:45;;;;;;;5.67;5.17;;;;;;;21.20;48.21;97744.91;6947429;28;20218;-77
2021/05/11 11:25:07;;;;;;;6.07;5.47;;;;;;;21.62;47.44;97792.22;6945705;28;20258;-75
2021/05/11 11:28:29;;;;;;;6.30;5.50;;;;;;;21.71;47.82;97782.19;6946196;28;20212;-75
2021/05/11 11:31:52;;;;;;;5.83;5.13;;;;;;;21.93;47.82;97814.47;6945095;28;20226;-75
2021/05/11 11:35:13;;;;;;;5.70;5.17;;;;;;;22.11;47.33;97822.66;6946349;28;20666;-75
2021/05/11 11:38:36;;;;;;;6.70;6.10;;;;;;;21.84;47.45;97802.56;6941887;28;20233;-75
2021/05/11 11:41:59;;;;;;;6.10;5.57;;;;;;;21.24;47.88;97749.50;6911616;28;20200;-75
2021/05/11 11:45:25;;;;;;;5.70;5.20;;;;;;;22.35;46.72;97856.25;6915189;28;20235;-74
2021/05/11 11:49:01;;;;;;;6.77;6.13;;;;;;;22.30;46.44;97841.81;6917275;28;20753;-76
2021/05/11 11:52:28;;;;;;;6.80;6.07;;;;;;;22.13;46.61;97805.88;6917783;28;20223;-77
2021/05/11 11:56:20;;;;;;;8.17;6.57;;;;;;;21.84;47.23;97838.25;6918573;28;20206;-73
2021/05/11 11:59:55;;;;;;;7.13;6.53;;;;;;;21.35;48.50;97849.69;6917856;28;20671;-75
2021/05/11 12:03:17;;;;;;;7.13;6.43;;;;;;;21.67;48.10;97848.94;6918191;28;20208;-75
2021/05/11 12:06:41;;;;;;;6.50;6.00;;;;;;;21.47;47.57;97797.94;6918169;28;20230;-75
2021/05/11 12:10:05;;;;;;;7.40;6.80;;;;;;;22.22;46.62;97846.06;6917650;28;20244;-75
2021/05/11 12:13:27;;;;;;;7.57;6.73;;;;;;;21.22;48.29;97832.34;6917603;28;20267;-75
2021/05/11 12:16:48;;;;;;;7.67;7.07;;;;;;;21.10;49.51;97837.47;6917462;28;20208;-75
2021/05/11 12:20:25;;;;;;;9.43;7.70;;;;;;;21.89;47.88;97811.50;6917221;28;20579;-75
2021/05/11 12:23:48;;;;;;;10.33;9.33;;;;;;;22.11;46.92;97806.19;6917542;28;20204;-75
2021/05/11 12:27:13;;;;;;;9.20;8.27;;;;;;;22.47;46.21;97806.31;6917173;28;20213;-75
2021/05/11 12:30:38;;;;;;;10.10;7.10;;;;;;;22.61;45.04;97802.44;6917031;28;20234;-75
2021/05/11 12:34:05;;;;;;;8.87;8.07;;;;;;;22.43;46.14;97808.88;6917781;28;20235;-75
2021/05/11 12:37:43;;;;;;;11.17;10.07;;;;;;;22.67;44.87;97817.72;6917635;28;20214;-75
2021/05/11 12:41:12;;;;;;;10.80;9.90;;;;;;;22.54;45.53;97807.53;6917019;28;20210;-75
2021/05/11 12:44:34;;;;;;;12.73;11.53;;;;;;;22.77;45.48;97863.44;6917138;28;20271;-75
2021/05/11 12:48:00;;;;;;;14.33;12.83;;;;;;;21.90;47.12;97802.16;6916659;28;20309;-75
2021/05/11 12:51:41;;;;;;;16.90;15.20;;;;;;;21.88;46.65;97771.47;6916628;28;20207;-75
2021/05/11 12:55:05;;;;;;;18.17;14.83;;;;;;;22.61;46.25;97849.16;6916461;28;20213;-75
2021/05/11 12:58:37;;;;;;;9.03;8.10;;;;;;;22.35;46.68;97849.91;6916707;28;20209;-76
2021/05/11 13:02:04;;;;;;;6.87;6.27;;;;;;;22.53;46.60;97862.81;6916481;28;20238;-75
2021/05/11 13:09:36;;;;;;;6.47;5.53;;;;;;;22.09;48.17;97865.25;6916157;28;20688;-75
2021/05/11 13:16:49;;;;;;;7.10;6.60;;;;;;;21.77;49.24;97844.09;6916863;28;20242;-75
2021/05/11 13:20:25;;;;;;;6.83;6.20;;;;;;;21.71;48.28;97817.06;6916322;28;20216;-75
2021/05/11 13:27:28;;;;;;;7.27;6.67;;;;;;;21.84;48.98;97860.19;6916604;28;20206;-75
2021/05/11 13:30:55;;;;;;;9.83;8.83;;;;;;;21.92;48.36;97879.53;6915483;28;20312;-75
2021/05/11 13:34:20;;;;;;;11.73;10.73;;;;;;;21.31;49.45;97817.69;6915870;28;20231;-75
2021/05/11 13:37:41;;;;;;;12.57;11.47;;;;;;;21.45;50.27;97885.19;6916426;28;20212;-75
2021/05/11 13:41:02;;;;;;;14.03;12.73;;;;;;;21.46;51.10;97881.34;6915824;28;20206;-75
2021/05/11 13:44:24;;;;;;;10.47;9.53;;;;;;;20.49;53.08;97885.84;6916327;28;20237;-75
2021/05/11 13:47:56;;;;;;;9.60;8.20;;;;;;;20.45;54.79;97912.22;6916139;28;20577;-76
2021/05/11 13:51:19;;;;;;;9.93;7.57;;;;;;;20.52;55.53;97918.97;6915726;28;20207;-75
2021/05/11 13:54:42;;;;;;;7.67;7.07;;;;;;;20.26;55.64;97944.97;6919031;28;20236;-75
2021/05/11 14:01:59;;;;;;;7.70;7.10;;;;;;;19.49;56.36;97846.53;6921258;28;20197;-75
2021/05/11 14:05:21;;;;;;;7.20;6.50;;;;;;;19.87;56.12;97881.22;6921957;28;20207;-76
2021/05/11 14:08:43;;;;;;;7.87;7.03;;;;;;;20.05;57.43;97932.50;6921676;28;20211;-75
2021/05/11 14:12:05;;;;;;;8.27;7.47;;;;;;;20.05;56.32;97937.19;6921190;28;20602;-76
2021/05/11 14:15:28;;;;;;;7.63;6.93;;;;;;;19.95;56.12;97874.34;6921554;28;20215;-75
2021/05/11 14:18:49;;;;;;;8.07;7.37;;;;;;;20.10;56.69;97948.13;6921576;28;20666;-76
2021/05/11 14:22:10;;;;;;;8.53;7.63;;;;;;;19.30;58.14;97844.78;6920845;28;20687;-76
2021/05/11 14:25:32;;;;;;;11.43;9.53;;;;;;;19.54;58.98;97903.09;6921342;28;20215;-76
2021/05/11 14:28:54;;;;;;;9.57;8.70;;;;;;;19.74;58.78;97933.88;6921184;28;20715;-76
2021/05/11 14:32:15;;;;;;;10.07;7.53;;;;;;;19.20;59.36;97888.53;6920631;28;20270;-75
2021/05/11 14:35:37;;;;;;;7.53;6.83;;;;;;;19.39;59.03;97933.28;6921274;28;20249;-75
2021/05/11 14:38:58;;;;;;;7.83;7.03;;;;;;;19.16;60.91;97920.25;6920828;28;20658;-75
2021/05/11 14:42:20;;;;;;;7.90;6.80;;;;;;;19.28;59.55;97855.19;6912531;28;20610;-75
2021/05/11 14:45:41;;;;;;;7.10;5.77;;;;;;;18.86;60.75;97849.38;6892510;28;20220;-76
2021/05/11 14:49:03;;;;;;;6.40;5.80;;;;;;;19.64;59.78;97933.91;6892255;28;20228;-74
2021/05/11 14:52:26;;;;;;;7.23;6.50;;;;;;;19.67;59.89;97899.72;6893254;28;20228;-75
2021/05/11 14:55:47;;;;;;;7.30;5.37;;;;;;;19.36;59.17;97849.09;6893757;28;20204;-76
2021/05/11 14:59:10;;;;;;;6.53;4.90;;;;;;;19.54;59.86;97924.97;6892878;28;20212;-77
2021/05/11 15:02:32;;;;;;;7.57;4.73;;;;;;;19.52;59.77;97930.72;6893300;28;20667;-75
2021/05/11 15:05:53;;;;;;;5.63;5.03;;;;;;;19.40;60.29;97913.84;6841921;28;20212;-75
2021/05/11 15:09:14;;;;;;;4.20;3.80;;;;;;;18.99;59.64;97890.53;6893061;28;20213;-76
2021/05/11 15:12:35;;;;;;;4.33;3.87;;;;;;;19.20;60.45;97935.81;6893726;28;20224;-75
2021/05/11 15:15:58;;;;;;;4.77;4.17;;;;;;;19.21;60.48;97923.00;6893072;28;20208;-76
2021/05/11 15:19:20;;;;;;;3.97;3.03;;;;;;;18.59;59.95;97865.34;6892635;28;20221;-76
2021/05/11 15:22:42;;;;;;;5.93;3.53;;;;;;;19.15;60.64;97944.03;6892993;28;20204;-76
2021/05/11 15:26:03;;;;;;;4.63;3.13;;;;;;;18.70;60.55;97900.50;6893095;28;20283;-76
2021/05/11 15:29:25;;;;;;;3.30;2.90;;;;;;;19.01;60.88;97926.63;6892350;28;20214;-75
2021/05/11 15:32:51;;;;;;;4.03;2.60;;;;;;;18.71;60.25;97895.88;6893174;28;20235;-76
2021/05/11 15:36:12;;;;;;;3.40;3.00;;;;;;;19.04;60.74;97947.91;6875286;28;20675;-75
2021/05/11 15:39:33;;;;;;;3.47;2.83;;;;;;;18.76;61.04;97904.03;6892430;28;20219;-76
2021/05/11 15:42:56;;;;;;;3.73;2.90;;;;;;;18.83;61.16;97894.47;6893119;28;20204;-78
2021/05/11 15:46:17;;;;;;;3.40;3.10;;;;;;;19.05;61.04;97932.34;6892467;28;20621;-76
2021/05/11 15:49:43;;;;;;;4.27;3.87;;;;;;;18.61;61.18;97882.25;6891706;28;20340;-76
2021/05/11 15:53:07;;;;;;;5.23;3.80;;;;;;;18.83;61.62;97957.28;6892040;28;20266;-76
2021/05/11 15:56:28;;;;;;;6.30;4.07;;;;;;;19.39;61.32;98002.44;6891933;28;20295;-77
2021/05/11 15:59:49;;;;;;;5.03;3.93;;;;;;;18.97;62.25;98003.91;6892625;28;20647;-76
2021/05/11 16:03:11;;;;;;;6.03;3.60;;;;;;;18.65;62.72;98000.75;6892178;28;20209;-77
2021/05/11 16:06:34;;;;;;;5.03;3.70;;;;;;;18.64;62.81;98007.28;6892432;28;20204;-77
2021/05/11 16:09:55;;;;;;;3.90;3.50;;;;;;;18.84;61.89;97975.28;6891703;28;20208;-77
2021/05/11 16:13:20;;;;;;;3.97;3.53;;;;;;;18.19;62.62;97934.44;6891384;28;20227;-76
2021/05/11 16:16:42;;;;;;;5.30;3.50;;;;;;;18.24;62.04;97914.53;6891337;28;20222;-75
2021/05/11 16:20:05;;;;;;;3.40;3.10;;;;;;;17.89;61.89;97918.09;6891483;28;20726;-76
2021/05/11 16:23:27;;;;;;;4.07;2.77;;;;;;;17.93;62.65;97943.72;6891434;28;20262;-77
2021/05/11 16:26:49;;;;;;;2.93;2.57;;;;;;;18.07;63.13;97949.44;6891508;28;20231;-77
2021/05/11 16:30:12;;;;;;;8.27;7.60;;;;;;;17.86;63.61;97981.34;6891666;28;20209;-76
2021/05/11 16:33:33;;;;;;;36.90;25.20;;;;;;;17.71;62.87;97924.09;6890848;28;20239;-76
2021/05/11 16:36:55;;;;;;;11.33;7.73;;;;;;;17.76;63.42;97975.88;6887813;28;20666;-76
2021/05/11 16:40:18;;;;;;;20.53;13.53;;;;;;;17.55;63.93;97936.06;6907794;28;20706;-76
2021/05/11 16:43:39;;;;;;;17.13;12.47;;;;;;;17.89;62.77;97960.91;6891209;28;20677;-77
2021/05/11 16:47:00;;;;;;;7.03;5.97;;;;;;;17.94;63.05;97996.38;6893544;28;20542;-77
2021/05/11 16:50:23;;;;;;;7.37;6.40;;;;;;;18.27;64.05;98072.25;6916885;28;20322;-84
2021/05/11 16:53:44;;;;;;;29.10;20.00;;;;;;;18.51;63.00;98025.03;6901492;28;20251;-77
2021/05/11 16:57:06;;;;;;;16.97;13.40;;;;;;;18.70;62.38;98052.63;6943700;28;20260;-77
2021/05/11 17:00:29;;;;;;;9.87;7.43;;;;;;;17.93;63.67;97990.09;6944218;28;20321;-77
2021/05/11 17:03:51;;;;;;;5.67;5.10;;;;;;;18.54;63.34;98056.44;6925216;28;20597;-77
2021/05/11 17:07:12;;;;;;;5.70;5.07;;;;;;;17.72;63.46;97968.53;6882823;28;20196;-77
2021/05/11 17:10:35;;;;;;;2.70;2.50;;;;;;;18.44;63.12;98067.34;6898990;28;20211;-78
2021/05/11 17:14:00;;;;;;;3.00;2.80;;;;;;;17.63;63.19;97975.63;6917227;28;20231;-78
2021/05/11 17:17:21;;;;;;;4.60;3.40;;;;;;;17.52;63.55;97971.22;6916307;28;20285;-77
2021/05/11 17:20:42;;;;;;;3.63;2.60;;;;;;;17.99;63.47;98005.38;6917928;28;20212;-78
2021/05/11 17:24:05;;;;;;;3.30;3.10;;;;;;;17.90;63.65;97998.00;6918427;28;20210;-78
2021/05/11 17:27:29;;;;;;;4.67;3.50;;;;;;;17.96;62.67;97970.47;6925208;28;20209;-77
2021/05/11 17:30:56;;;;;;;4.53;2.97;;;;;;;17.97;62.79;97993.91;6944902;28;20310;-77
2021/05/11 17:34:17;;;;;;;3.97;2.83;;;;;;;18.83;62.48;98106.66;6945565;28;20227;-78
2021/05/11 17:37:39;;;;;;;7.47;5.57;;;;;;;18.03;63.10;98062.91;6945277;28;20215;-78
2021/05/11 17:41:01;;;;;;;4.40;3.90;;;;;;;17.86;62.75;97994.19;6890811;28;20212;-77
2021/05/11 17:44:22;;;;;;;3.40;2.73;;;;;;;17.76;63.23;98038.59;6891562;28;20205;-78
2021/05/11 17:47:51;;;;;;;11.07;9.97;;;;;;;18.24;62.90;98064.59;6912773;28;20200;-78
2021/05/11 17:51:14;;;;;;;3.03;2.73;;;;;;;18.13;63.50;98080.16;6917864;28;20242;-77
2021/05/11 17:54:36;;;;;;;3.60;3.00;;;;;;;17.82;63.57;98020.34;6917660;28;20237;-77
2021/05/11 17:57:59;;;;;;;3.03;2.73;;;;;;;18.27;63.64;98103.06;6918048;28;20235;-78
2021/05/11 18:01:22;;;;;;;3.07;2.63;;;;;;;18.38;64.25;98131.22;6917085;28;20231;-77
2021/05/11 18:04:46;;;;;;;3.20;2.20;;;;;;;18.16;63.23;98089.69;6915202;28;20219;-77
2021/05/11 18:08:08;;;;;;;3.57;2.57;;;;;;;17.68;63.32;98013.78;6910853;28;20195;-79
2021/05/11 18:11:29;;;;;;;7.83;4.90;;;;;;;18.15;63.59;98088.03;6913379;28;20736;-77
2021/05/11 18:14:50;;;;;;;4.87;4.30;;;;;;;18.43;62.84;98099.31;6916293;28;20430;-78
2021/05/11 18:18:12;;;;;;;3.27;2.97;;;;;;;18.24;63.32;98127.34;6915657;28;20254;-78
2021/05/11 18:21:34;;;;;;;2.80;2.60;;;;;;;18.34;62.83;98155.50;6916560;28;20633;-78
2021/05/11 18:24:59;;;;;;;2.83;2.63;;;;;;;17.75;63.31;98041.63;6917240;28;20219;-79
2021/05/11 18:28:21;;;;;;;3.10;2.90;;;;;;;17.83;62.97;98061.00;6917237;28;20238;-78
2021/05/11 18:31:43;;;;;;;2.73;2.53;;;;;;;17.89;63.79;98105.44;6917800;28;20240;-77
2021/05/11 18:35:05;;;;;;;2.50;2.30;;;;;;;17.88;63.32;98112.00;6917531;28;20593;-88
2021/05/11 18:38:31;;;;;;;2.90;2.60;;;;;;;17.68;63.11;98073.78;6917739;28;20215;-77
2021/05/11 18:41:52;;;;;;;3.67;3.30;;;;;;;17.91;63.53;98116.91;6921157;28;20211;-78
2021/05/11 18:45:14;;;;;;;2.60;2.40;;;;;;;17.91;62.92;98101.38;6921451;28;20254;-78
2021/05/11 18:48:37;;;;;;;2.20;2.00;;;;;;;17.90;63.18;98101.63;6920729;28;20232;-78
2021/05/11 18:51:58;;;;;;;3.33;2.00;;;;;;;17.35;63.64;98041.44;6919177;28;20223;-77
2021/05/11 18:55:21;;;;;;;2.27;1.87;;;;;;;17.51;63.62;98084.88;6920145;28;20703;-77
2021/05/11 18:58:42;;;;;;;3.10;2.47;;;;;;;17.38;63.74;98089.97;6919503;28;20214;-78
2021/05/11 19:02:04;;;;;;;2.30;2.20;;;;;;;17.69;63.40;98119.81;6919582;28;20215;-77
2021/05/11 19:05:25;;;;;;;3.17;2.60;;;;;;;18.00;63.61;98167.97;6919042;28;20296;-78
2021/05/11 19:08:48;;;;;;;4.07;3.67;;;;;;;17.56;63.41;98109.41;6897685;28;20600;-77
2021/05/11 19:12:11;;;;;;;3.93;3.53;;;;;;;17.25;63.47;98074.09;6917897;28;20697;-77
2021/05/11 19:15:33;;;;;;;8.50;7.57;;;;;;;17.53;63.40;98101.78;6918647;28;20211;-77
2021/05/11 19:18:55;;;;;;;12.00;9.73;;;;;;;17.50;63.96;98128.72;6918525;28;20286;-77
2021/05/11 19:22:18;;;;;;;8.90;6.50;;;;;;;17.90;64.24;98181.56;6917967;28;20238;-77
2021/05/11 19:25:39;;;;;;;3.30;3.00;;;;;;;18.32;61.68;98135.03;6918674;28;20347;-77
2021/05/11 19:29:02;;;;;;;3.23;2.17;;;;;;;18.15;61.10;98109.88;6907817;28;20204;-77
2021/05/11 19:32:23;;;;;;;3.97;2.43;;;;;;;18.24;62.02;98193.69;6892698;28;20231;-78
2021/05/11 19:35:45;;;;;;;3.50;2.27;;;;;;;17.19;62.99;98050.63;6892180;28;20212;-77
2021/05/11 19:39:10;;;;;;;7.00;5.40;;;;;;;18.06;62.22;98157.88;6902848;28;20223;-77
2021/05/11 19:42:31;;;;;;;4.77;4.27;;;;;;;17.96;61.39;98123.22;6892492;28;20208;-78
2021/05/11 19:45:53;;;;;;;3.33;3.03;;;;;;;18.29;60.42;98157.38;6907317;28;20200;-76
2021/05/11 19:49:15;;;;;;;4.40;4.10;;;;;;;17.62;61.33;98080.25;6919209;28;20246;-78
2021/05/11 19:52:39;;;;;;;4.77;4.17;;;;;;;17.94;61.52;98165.47;6918927;28;20223;-77
2021/05/11 19:56:01;;;;;;;3.17;2.90;;;;;;;17.33;62.29;98114.47;6924468;28;20199;-78
2021/05/11 19:59:23;;;;;;;8.13;6.07;;;;;;;17.39;62.56;98144.22;6945126;28;20575;-78
2021/05/11 20:02:45;;;;;;;2.93;2.60;;;;;;;18.04;61.39;98223.59;6945910;28;20230;-76
2021/05/11 20:06:06;;;;;;;2.37;2.10;;;;;;;17.97;60.83;98164.91;6936819;28;20203;-77
2021/05/11 20:09:30;;;;;;;14.00;8.13;;;;;;;16.98;62.51;98188.59;6918398;28;20214;-77
2021/05/11 20:12:52;;;;;;;2.30;1.90;;;;;;;17.00;62.28;98182.88;6919330;28;20223;-76
2021/05/11 20:16:13;;;;;;;1.77;1.67;;;;;;;17.45;60.54;98194.94;6918462;28;20238;-76
2021/05/11 20:19:35;;;;;;;5.40;3.70;;;;;;;17.29;61.20;98186.91;6918635;28;20192;-79
2021/05/11 20:22:56;;;;;;;44.30;25.03;;;;;;;17.20;62.10;98193.94;6919158;28;20218;-79
2021/05/11 20:26:18;;;;;;;3.57;3.10;;;;;;;18.12;60.29;98235.91;6918285;28;20211;-78
2021/05/11 20:29:39;;;;;;;5.63;5.10;;;;;;;16.91;60.97;98133.53;6912133;28;20211;-77
2021/05/11 20:33:00;;;;;;;3.30;3.00;;;;;;;16.90;61.25;98120.19;6896316;28;20228;-77
2021/05/11 20:36:26;;;;;;;5.23;4.83;;;;;;;16.88;61.69;98133.25;6918464;28;20718;-78
2021/05/11 20:39:47;;;;;;;12.20;8.40;;;;;;;16.53;62.49;98130.22;6918355;28;20203;-78
2021/05/11 20:43:08;;;;;;;7.40;6.70;;;;;;;17.04;62.72;98205.81;6917922;28;20207;-78
2021/05/11 20:46:30;;;;;;;5.37;4.90;;;;;;;17.04;62.31;98222.16;6918084;28;20207;-77
2021/05/11 20:49:51;;;;;;;4.87;4.40;;;;;;;17.20;62.21;98251.97;6918157;28;20583;-78
2021/05/11 20:53:14;;;;;;;2.40;2.20;;;;;;;17.39;61.91;98209.63;6919028;28;20247;-78
2021/05/11 20:56:35;;;;;;;2.50;1.80;;;;;;;16.63;62.64;98184.75;6917525;28;20736;-77
2021/05/11 20:59:57;;;;;;;1.67;1.57;;;;;;;16.78;62.98;98185.72;6916529;28;20221;-78
